LFGJ 200100Z AUTO 19011KT CAVOK 22/10 Q1021 LFGJ 200030Z AUTO 19012KT CAVOK 23/11 Q1021 LFGJ 200000Z AUTO 18013KT CAVOK 23/11 Q1021 LFGJ 192330Z AUTO 18012KT 150V210 CAVOK 24/11 Q1021 LFGJ 192300Z AUTO 18011KT CAVOK 24/12 Q1021 LFGJ 192230Z AUTO 19012KT CAVOK 24/13 Q1021 LFGJ 192200Z AUTO 19010KT CAVOK 24/13 Q1021 LFGJ 192130Z AUTO 18010KT CAVOK 24/13 Q1020 LFGJ 192100Z AUTO 18009KT CAVOK 23/13 Q1020 LFGJ 192030Z AUTO 15006KT 120V180 CAVOK 22/14 Q1020 LFGJ 192000Z AUTO 18009KT CAVOK 24/13 Q1020 LFGJ 191930Z AUTO 18007KT CAVOK 23/15 Q1020 LFGJ 191900Z AUTO 14004KT CAVOK 23/16 Q1020 LFGJ 191830Z AUTO 17004KT CAVOK 25/16 Q1020 LFGJ 191800Z AUTO 19008KT CAVOK 27/16 Q1020 LFGJ 191730Z AUTO 19006KT CAVOK 28/16 Q1020 LFGJ 191700Z AUTO 20008KT 180V240 CAVOK 29/16 Q1020 TEMPO VRB15G30KT 3000 TSRA SCT060CB BKN080 LFGJ 191630Z AUTO 21010KT CAVOK 30/15 Q1020 TEMPO VRB15G30KT 3000 TSRA SCT060CB BKN080 LFGJ 191600Z AUTO 20011KT 9000 NSC 29/15 Q1020 TEMPO VRB15G30KT 3000 TSRA SCT060CB BKN080 LFGJ 191530Z AUTO 21013KT 9000 NSC 30/15 Q1020 TEMPO VRB15G30KT 3000 TSRA SCT060CB BKN080 LFGJ 191500Z AUTO 21012KT 9000 NSC 30/14 Q1020 TEMPO VRB15G30KT 3000 TSRA SCT060CB BKN080 LFGJ 191430Z AUTO 21013KT 9000 NSC 29/15 Q1021 TEMPO VRB15G30KT 3000 TSRA SCT060CB BKN080 LFGJ 191400Z AUTO 19012KT 160V220 9000 NSC 29/15 Q1021 TEMPO VRB15G30KT 3000 TSRA SCT060CB BKN080 LFGJ 191330Z AUTO 20012KT 170V230 9000 NSC 30/16 Q1021 TEMPO VRB15G30KT 3000 TSRA SCT060CB BKN080 LFGJ 191300Z AUTO 18010KT CAVOK 29/15 Q1021 TEMPO VRB15G30KT 3000 TSRA SCT060CB BKN080 LFGJ 191230Z AUTO 20012KT CAVOK 28/16 Q1021 TEMPO VRB15G30KT 3000 TSRA SCT060CB BKN080 LFGJ 191200Z AUTO 17007KT 140V210 CAVOK 27/16 Q1021 TEMPO VRB15G30KT 3000 TSRA SCT060CB BKN080 LFGJ 191130Z AUTO 18006KT 140V220 9999 //////CB 26/17 Q1022 TEMPO VRB15G35KT 3000 TSRA LFGJ 191100Z AUTO 17006KT 9999 FEW040/// SCT110/// BKN150/// //////CB 22/17 Q1022 TEMPO 20015G25KT 3000 TSRA LFGJ 191030Z AUTO 23005KT 9999 -RA FEW049/// BKN100/// OVC120/// //////CB 22/16 Q1022 TEMPO 20015G25KT 3000 TSRA LFGJ 191000Z AUTO 22014KT 6000 2700 VCTS ///CB 23/15 Q1022 TEMPO 20015G25KT 3000 TSRA LFGJ 190930Z AUTO 23018KT 6000 2800 VCTS ///CB 26/16 Q1022 TEMPO 20015G25KT 3000 TSRA LFGJ 190900Z AUTO 19015KT 6000 2900 NSC 26/15 Q1021 TEMPO 20015G25KT 3000 TSRA SCT060CB LFGJ 190830Z AUTO 20017KT 6000 0400 R05/0450D // NSC 26/15 Q1021 LFGJ 190800Z AUTO 19012KT 7000 NSC 24/16 Q1021 TEMPO 20015G25KT BECMG FEW060TCU LFGJ 190730Z AUTO 19013KT 7000 NSC 23/15 Q1021 TEMPO 20015G25KT BECMG FEW060TCU LFGJ 190700Z AUTO 19010KT 8000 NSC 22/15 Q1021 TEMPO 20015G25KT SHRA BECMG FEW060TCU LFGJ 190630Z AUTO 17007KT 9999 //////TCU 21/15 Q1021 TEMPO 20015G25KT SHRA FEW060CB LFGJ 190600Z AUTO 23006KT CAVOK 21/16 Q1021 TEMPO 2000 TSRA SCT055CB LFGJ 190530Z AUTO 22007KT 9000 NSC 21/16 Q1021 TEMPO 2000 TSRA SCT055CB LFGJ 190500Z AUTO 21008KT 180V240 9000 //////CB 21/15 Q1020 LFGJ 190430Z AUTO 18007KT 9999 //////TCU 19/15 Q1019 LFGJ 190400Z AUTO 19006KT 9999 //////TCU 20/16 Q1019 LFGJ 190330Z AUTO 20008KT 9999 //////TCU 20/16 Q1019 LFGJ 190300Z AUTO 20010KT 9999 //////TCU 20/16 Q1019 LFGJ 190230Z AUTO VRB02KT 9999 //////TCU 16/15 Q1019 LFGJ 190200Z AUTO 06002KT CAVOK 16/15 Q1019 LFGJ 190130Z AUTO 08002KT CAVOK 15/15 Q1019 LFGJ 190100Z AUTO VRB02KT CAVOK 15/14 Q1019 LFGJ 190030Z AUTO 08002KT CAVOK 15/14 Q1019 LFGJ 190000Z AUTO 10003KT CAVOK 16/14 Q1018 LFGJ 182330Z AUTO 09002KT CAVOK 16/15 Q1019 LFGJ 182300Z AUTO 10002KT CAVOK 16/15 Q1018 LFGJ 182230Z AUTO 04002KT CAVOK 17/15 Q1018 LFGJ 182200Z AUTO 16003KT CAVOK 18/15 Q1018 LFGJ 182130Z AUTO 16002KT CAVOK 18/15 Q1018 LFGJ 182100Z AUTO 23002KT CAVOK 20/15 Q1018 LFGJ 182030Z AUTO VRB02KT CAVOK 21/15 Q1018 LFGJ 182000Z AUTO 00000KT CAVOK 23/15 Q1018 LFGJ 181930Z AUTO 36002KT CAVOK 23/15 Q1018 LFGJ 181900Z AUTO 04005KT CAVOK 23/16 Q1017 LFGJ 181830Z AUTO 03006KT CAVOK 25/16 Q1017 LFGJ 181800Z AUTO 01005KT CAVOK 26/16 Q1017 LFGJ 181730Z AUTO 01006KT CAVOK 27/16 Q1017 LFGJ 181700Z AUTO 36007KT CAVOK 28/14 Q1017 NOSIG LFGJ 181630Z AUTO 01007KT CAVOK 29/13 Q1018 NOSIG LFGJ 181600Z AUTO 03007KT 350V050 CAVOK 29/15 Q1018 NOSIG LFGJ 181530Z AUTO 03006KT CAVOK 28/15 Q1018 NOSIG LFGJ 181500Z AUTO 04007KT 350V070 CAVOK 29/15 Q1018 NOSIG LFGJ 181430Z AUTO 05007KT 360V090 CAVOK 30/14 Q1018 NOSIG LFGJ 181400Z AUTO 01007KT 320V040 CAVOK 29/14 Q1019 NOSIG LFGJ 181330Z AUTO 03007KT 360V070 CAVOK 30/13 Q1019 NOSIG

METAR Messwerte "DOLE TAVAUX" LFGJ

Zurück zur Übersicht

Ortsname
Ländercode / m ü. NN
Zeit Temperatur Taupunkt Rel.
Luftfeuchte
Luftdruck:
Altimeter
NN
Station
Wind in Beaufort
(Knoten)
Sichtweite
(Meter)
Wolken
(Meter über Grund)
Wettererscheinung
DOLE TAVAUX
FR 191
Fr 20.05. 03:00221046 %1021
1020
998
S 4 (11)>= 10000Nicht signifikant 
DOLE TAVAUX
FR 191
Fr 20.05. 02:30231147 %1021
1020
998
S 4 (12)>= 10000Nicht signifikant 
DOLE TAVAUX
FR 191
Fr 20.05. 02:00231147 %1021
1020
998
S 4 (13)>= 10000Nicht signifikant 
DOLE TAVAUX
FR 191
Fr 20.05. 01:30241144 %1021
1020
998
S 4 (12)
SSO - SSW
>= 10000Nicht signifikant 
DOLE TAVAUX
FR 191
Fr 20.05. 01:00241247 %1021
1020
998
S 4 (11)>= 10000Nicht signifikant 
DOLE TAVAUX
FR 191
Fr 20.05. 00:30241350 %1021
1020
998
S 4 (12)>= 10000Nicht signifikant 
DOLE TAVAUX
FR 191
Fr 20.05. 00:00241350 %1021
1020
998
S 3 (10)>= 10000Nicht signifikant 
DOLE TAVAUX
FR 191
Do 19.05. 23:30241350 %1020
1019
997
S 3 (10)>= 10000Nicht signifikant 
DOLE TAVAUX
FR 191
Do 19.05. 23:00231353 %1020
1019
997
S 3 (9)>= 10000Nicht signifikant 
DOLE TAVAUX
FR 191
Do 19.05. 22:30221460 %1020
1019
997
SSO 2 (6)
OSO - S
>= 10000Nicht signifikant 
DOLE TAVAUX
FR 191
Do 19.05. 22:00241350 %1020
1019
997
S 3 (9)>= 10000Nicht signifikant 
DOLE TAVAUX
FR 191
Do 19.05. 21:30231561 %1020
1019
997
S 3 (7)>= 10000Nicht signifikant 
DOLE TAVAUX
FR 191
Do 19.05. 21:00231665 %1020
1019
997
SO 2 (4)>= 10000Nicht signifikant 
DOLE TAVAUX
FR 191
Do 19.05. 20:30251657 %1020
1019
997
S 2 (4)>= 10000Nicht signifikant 
DOLE TAVAUX
FR 191
Do 19.05. 20:00271651 %1020
1019
997
S 3 (8)>= 10000Nicht signifikant 
DOLE TAVAUX
FR 191
Do 19.05. 19:30281648 %1020
1019
997
S 2 (6)>= 10000Nicht signifikant 
DOLE TAVAUX
FR 191
Do 19.05. 19:00291645 %1020
1019
997
SSW 3 (8)
S - WSW
Bald zeitweise:
Uml 4 (15) - 7 (30)
>= 10000
Bald zeitweise: 3000
Nicht signifikant Bald zeitweise: Gewitter mit Regen
DOLE TAVAUX
FR 191
Do 19.05. 18:30301540 %1020
1019
997
SSW 3 (10)
Bald zeitweise:
Uml 4 (15) - 7 (30)
>= 10000
Bald zeitweise: 3000
Nicht signifikant Bald zeitweise: Gewitter mit Regen
DOLE TAVAUX
FR 191
Do 19.05. 18:00291543 %1020
1019
997
SSW 4 (11)
Bald zeitweise:
Uml 4 (15) - 7 (30)
9000
Bald zeitweise: 3000
Nicht signifikant Bald zeitweise: Gewitter mit Regen
DOLE TAVAUX
FR 191
Do 19.05. 17:30301540 %1020
1019
997
SSW 4 (13)
Bald zeitweise:
Uml 4 (15) - 7 (30)
9000
Bald zeitweise: 3000
Nicht signifikant Bald zeitweise: Gewitter mit Regen
DOLE TAVAUX
FR 191
Do 19.05. 17:00301438 %1020
1019
997
SSW 4 (12)
Bald zeitweise:
Uml 4 (15) - 7 (30)
9000
Bald zeitweise: 3000
Nicht signifikant Bald zeitweise: Gewitter mit Regen
DOLE TAVAUX
FR 191
Do 19.05. 16:30291543 %1021
1020
998
SSW 4 (13)
Bald zeitweise:
Uml 4 (15) - 7 (30)
9000
Bald zeitweise: 3000
Nicht signifikant Bald zeitweise: Gewitter mit Regen
DOLE TAVAUX
FR 191
Do 19.05. 16:00291543 %1021
1020
998
S 4 (12)
SSO - SW
Bald zeitweise:
Uml 4 (15) - 7 (30)
9000
Bald zeitweise: 3000
Nicht signifikant Bald zeitweise: Gewitter mit Regen
DOLE TAVAUX
FR 191
Do 19.05. 15:30301643 %1021
1020
998
SSW 4 (12)
S - SW
Bald zeitweise:
Uml 4 (15) - 7 (30)
9000
Bald zeitweise: 3000
Nicht signifikant Bald zeitweise: Gewitter mit Regen
DOLE TAVAUX
FR 191
Do 19.05. 15:00291543 %1021
1020
998
S 3 (10)
Bald zeitweise:
Uml 4 (15) - 7 (30)
>= 10000
Bald zeitweise: 3000
Nicht signifikant Bald zeitweise: Gewitter mit Regen
DOLE TAVAUX
FR 191
Do 19.05. 14:30281648 %1021
1020
998
SSW 4 (12)
Bald zeitweise:
Uml 4 (15) - 7 (30)
>= 10000
Bald zeitweise: 3000
Nicht signifikant Bald zeitweise: Gewitter mit Regen
DOLE TAVAUX
FR 191
Do 19.05. 14:00271651 %1021
1020
998
S 3 (7)
SO - SSW
Bald zeitweise:
Uml 4 (15) - 7 (30)
>= 10000
Bald zeitweise: 3000
Nicht signifikant Bald zeitweise: Gewitter mit Regen
DOLE TAVAUX
FR 191
Do 19.05. 13:30261758 %1022
1021
999
S 2 (6)
SO - SW
Bald zeitweise:
Uml 4 (15) - 8 (35)
>= 10000
Bald zeitweise: 3000
  Bald zeitweise: Gewitter mit Regen
DOLE TAVAUX
FR 191
Do 19.05. 13:00221773 %1022
1021
999
S 2 (6)
Bald zeitweise:
SSW 4 (15) - 6 (25)
>= 10000
Bald zeitweise: 3000
Stark bewölkt (4600)
Wolkig (3400)
Leicht bewölkt (1200)
 Bald zeitweise: Gewitter mit Regen
DOLE TAVAUX
FR 191
Do 19.05. 12:30221669 %1022
1021
999
SW 2 (5)
Bald zeitweise:
SSW 4 (15) - 6 (25)
>= 10000
Bald zeitweise: 3000
Bedeckt (3700)
Stark bewölkt (3000)
Leicht bewölkt (1500)
Regen (schwach)
Bald zeitweise: Gewitter mit Regen
DOLE TAVAUX
FR 191
Do 19.05. 12:00231561 %1022
1021
999
SW 4 (14)
Bald zeitweise:
SSW 4 (15) - 6 (25)
6000
Bald zeitweise: 3000
  Bald zeitweise: Gewitter mit Regen
DOLE TAVAUX
FR 191
Do 19.05. 11:30261654 %1022
1021
999
SW 5 (18)
Bald zeitweise:
SSW 4 (15) - 6 (25)
6000
Bald zeitweise: 3000
  Bald zeitweise: Gewitter mit Regen
DOLE TAVAUX
FR 191
Do 19.05. 11:00261551 %1021
1020
998
S 4 (15)
Bald zeitweise:
SSW 4 (15) - 6 (25)
6000
Bald zeitweise: 3000
Nicht signifikant Bald zeitweise: Gewitter mit Regen
DOLE TAVAUX
FR 191
Do 19.05. 10:30261551 %1021
1020
998
SSW 5 (17)6000Nicht signifikant 
DOLE TAVAUX
FR 191
Do 19.05. 10:00241661 %1021
1020
998
S 4 (12)
Bald zeitweise:
SSW 4 (15) - 6 (25)
7000Nicht signifikant 
DOLE TAVAUX
FR 191
Do 19.05. 09:30231561 %1021
1020
998
S 4 (13)
Bald zeitweise:
SSW 4 (15) - 6 (25)
7000Nicht signifikant 
DOLE TAVAUX
FR 191
Do 19.05. 09:00221565 %1021
1020
998
S 3 (10)
Bald zeitweise:
SSW 4 (15) - 6 (25)
8000Nicht signifikant Bald zeitweise: Regen-Schauer
DOLE TAVAUX
FR 191
Do 19.05. 08:30211569 %1021
1021
998
S 3 (7)
Bald zeitweise:
SSW 4 (15) - 6 (25)
>= 10000  Bald zeitweise: Regen-Schauer
DOLE TAVAUX
FR 191
Do 19.05. 08:00211673 %1021
1021
998
SW 2 (6)>= 10000
Bald zeitweise: 2000
Nicht signifikant Bald zeitweise: Gewitter mit Regen
DOLE TAVAUX
FR 191
Do 19.05. 07:30211673 %1021
1021
998
SW 3 (7)9000
Bald zeitweise: 2000
Nicht signifikant Bald zeitweise: Gewitter mit Regen
DOLE TAVAUX
FR 191
Do 19.05. 07:00211569 %1020
1020
997
SSW 3 (8)
S - WSW
9000  
DOLE TAVAUX
FR 191
Do 19.05. 06:30191578 %1019
1019
996
S 3 (7)>= 10000  
DOLE TAVAUX
FR 191
Do 19.05. 06:00201678 %1019
1019
996
S 2 (6)>= 10000  
DOLE TAVAUX
FR 191
Do 19.05. 05:30201678 %1019
1019
996
SSW 3 (8)>= 10000  
DOLE TAVAUX
FR 191
Do 19.05. 05:00201678 %1019
1019
996
SSW 3 (10)>= 10000  
DOLE TAVAUX
FR 191
Do 19.05. 04:30161594 %1019
1019
996
Uml 1 (2)>= 10000  
DOLE TAVAUX
FR 191
Do 19.05. 04:00161594 %1019
1019
996
ONO 1 (2)>= 10000Nicht signifikant 
DOLE TAVAUX
FR 191
Do 19.05. 03:301515100 %1019
1019
996
O 1 (2)>= 10000Nicht signifikant 
DOLE TAVAUX
FR 191
Do 19.05. 03:00151494 %1019
1019
996
Uml 1 (2)>= 10000Nicht signifikant 
DOLE TAVAUX
FR 191
Do 19.05. 02:30151494 %1019
1019
996
O 1 (2)>= 10000Nicht signifikant 
DOLE TAVAUX
FR 191
Do 19.05. 02:00161488 %1018
1018
995
O 2 (3)>= 10000Nicht signifikant 
DOLE TAVAUX
FR 191
Do 19.05. 01:30161594 %1019
1019
996
O 1 (2)>= 10000Nicht signifikant 
DOLE TAVAUX
FR 191
Do 19.05. 01:00161594 %1018
1018
995
O 1 (2)>= 10000Nicht signifikant 
DOLE TAVAUX
FR 191
Do 19.05. 00:30171588 %1018
1018
995
NO 1 (2)>= 10000Nicht signifikant 
DOLE TAVAUX
FR 191
Do 19.05. 00:00181583 %1018
1018
995
SSO 2 (3)>= 10000Nicht signifikant 
DOLE TAVAUX
FR 191
Mi 18.05. 23:30181583 %1018
1018
995
SSO 1 (2)>= 10000Nicht signifikant 
DOLE TAVAUX
FR 191
Mi 18.05. 23:00201573 %1018
1018
995
SW 1 (2)>= 10000Nicht signifikant 
DOLE TAVAUX
FR 191
Mi 18.05. 22:30211569 %1018
1018
995
Uml 1 (2)>= 10000Nicht signifikant 
DOLE TAVAUX
FR 191
Mi 18.05. 22:00231561 %1018
1017
995
Windstill>= 10000Nicht signifikant 
DOLE TAVAUX
FR 191
Mi 18.05. 21:30231561 %1018
1017
995
N 1 (2)>= 10000Nicht signifikant 
DOLE TAVAUX
FR 191
Mi 18.05. 21:00231665 %1017
1016
994
NO 2 (5)>= 10000Nicht signifikant 
DOLE TAVAUX
FR 191
Mi 18.05. 20:30251657 %1017
1016
994
NNO 2 (6)>= 10000Nicht signifikant 
DOLE TAVAUX
FR 191
Mi 18.05. 20:00261654 %1017
1016
994
N 2 (5)>= 10000Nicht signifikant 
DOLE TAVAUX
FR 191
Mi 18.05. 19:30271651 %1017
1016
994
N 2 (6)>= 10000Nicht signifikant 
DOLE TAVAUX
FR 191
Mi 18.05. 19:00281442 %1017
1016
994
N 3 (7)>= 10000Nicht signifikant 
DOLE TAVAUX
FR 191
Mi 18.05. 18:30291337 %1018
1017
995
N 3 (7)>= 10000Nicht signifikant 
DOLE TAVAUX
FR 191
Mi 18.05. 18:00291543 %1018
1017
995
NNO 3 (7)
N - NO
>= 10000Nicht signifikant 
DOLE TAVAUX
FR 191
Mi 18.05. 17:30281545 %1018
1017
995
NNO 2 (6)>= 10000Nicht signifikant 
DOLE TAVAUX
FR 191
Mi 18.05. 17:00291543 %1018
1017
995
NO 3 (7)
N - ONO
>= 10000Nicht signifikant 
DOLE TAVAUX
FR 191
Mi 18.05. 16:30301438 %1018
1017
995
NO 3 (7)
N - O
>= 10000Nicht signifikant 
DOLE TAVAUX
FR 191
Mi 18.05. 16:00291440 %1019
1018
996
N 3 (7)
NW - NO
>= 10000Nicht signifikant 
DOLE TAVAUX
FR 191
Mi 18.05. 15:30301335 %1019
1018
996
NNO 3 (7)
N - ONO
>= 10000Nicht signifikant 

Altimeter: Einstellung am Altimeter (Höhenmesser), die Höhe 0 muss auf diesen Luftdruckwert zeigen, damit das Gerät die Stationshöhe richtig anzeigt.

NN: Luftdruck reduziert auf "Normal Null", auf Meereshöhe, dieser von der Temperatur abhängige Wert wird bisweilen unkorrekt einfach als "Luftdruck" bezeichnet. Eigentlich nur eine fiktive Größe, die es erlaubt, Stationen auf unterschiedlichen Höhen miteinander zu vergleichen.

Station: Realer Luftdruck an der Station.